createdAt,value
2023-01-28T00:00:47.733Z,56.64
2023-01-28T00:02:49.929Z,56.76
2023-01-28T00:04:52.238Z,56.62
2023-01-28T00:06:54.119Z,55.89
2023-01-28T00:08:56.052Z,56.16
2023-01-28T00:11:00.854Z,56.10
2023-01-28T00:13:02.748Z,55.67
2023-01-28T00:15:05.117Z,55.71
2023-01-28T00:17:07.014Z,55.59
2023-01-28T00:19:09.441Z,55.46
2023-01-28T00:21:13.590Z,55.74
2023-01-28T00:23:15.387Z,55.99
2023-01-28T00:25:17.495Z,55.21
2023-01-28T00:27:19.427Z,55.17
2023-01-28T00:29:21.329Z,55.22
2023-01-28T00:31:25.863Z,55.13
2023-01-28T00:33:29.552Z,54.77
2023-01-28T00:35:31.425Z,54.98
2023-01-28T00:37:33.394Z,54.73
2023-01-28T00:39:35.254Z,54.33
2023-01-28T00:41:37.667Z,54.37
2023-01-28T00:43:40.934Z,54.73
2023-01-28T00:45:42.785Z,54.28
2023-01-28T00:47:45.438Z,54.08
2023-01-28T00:49:47.297Z,53.80
2023-01-28T00:51:49.193Z,53.67
2023-01-28T00:53:51.146Z,53.29
2023-01-28T00:55:53.186Z,53.34
2023-01-28T00:57:55.067Z,53.13
2023-01-28T00:59:57.041Z,52.96
2023-01-28T01:02:12.358Z,52.70
2023-01-28T01:04:14.372Z,52.34
2023-01-28T01:06:16.845Z,52.78
2023-01-28T01:08:19.175Z,52.69
2023-01-28T01:10:21.042Z,53.05
2023-01-28T01:12:22.980Z,53.06
2023-01-28T01:14:24.774Z,52.46
2023-01-28T01:16:29.388Z,52.92
2023-01-28T01:18:31.221Z,52.78
2023-01-28T01:20:33.538Z,52.42
2023-01-28T01:22:36.614Z,52.42
2023-01-28T01:24:38.417Z,52.35
2023-01-28T01:26:40.245Z,52.23
2023-01-28T01:28:42.473Z,52.58
2023-01-28T01:30:44.357Z,52.04
2023-01-28T01:32:46.277Z,52.14
2023-01-28T01:34:48.383Z,52.40
2023-01-28T01:36:50.250Z,51.81
2023-01-28T01:38:55.352Z,51.92
2023-01-28T01:40:59.618Z,51.62
2023-01-28T01:43:01.527Z,51.83
2023-01-28T01:45:06.142Z,51.63
2023-01-28T01:47:09.823Z,51.88
2023-01-28T01:49:25.167Z,51.78
2023-01-28T01:51:31.546Z,51.94
2023-01-28T01:53:33.505Z,51.70
2023-01-28T01:55:38.337Z,51.80
2023-01-28T01:57:40.788Z,51.66
2023-01-28T01:59:44.004Z,51.71
2023-01-28T02:01:46.119Z,51.52
2023-01-28T02:03:55.456Z,51.81
2023-01-28T02:05:57.297Z,51.74
2023-01-28T02:08:19.813Z,51.69
2023-01-28T02:10:23.531Z,51.68
2023-01-28T02:12:32.176Z,51.69
2023-01-28T02:14:38.819Z,51.52
2023-01-28T02:16:41.086Z,51.29
2023-01-28T02:18:43.521Z,51.20
2023-01-28T02:20:45.742Z,51.10
2023-01-28T02:23:06.556Z,50.65
2023-01-28T02:25:19.686Z,50.83
2023-01-28T02:27:37.201Z,51.33
2023-01-28T02:29:48.307Z,51.27
2023-01-28T02:31:59.275Z,51.86
2023-01-28T02:34:20.709Z,51.73
2023-01-28T02:36:23.221Z,51.88
2023-01-28T02:38:37.753Z,51.92
2023-01-28T02:40:53.394Z,51.95
2023-01-28T02:42:55.403Z,52.26
2023-01-28T02:44:57.333Z,51.68
2023-01-28T02:47:08.416Z,51.54
2023-01-28T02:49:16.553Z,51.86
2023-01-28T02:51:34.776Z,52.25
2023-01-28T02:53:45.366Z,52.53
2023-01-28T02:55:57.546Z,52.20
2023-01-28T02:58:10.802Z,52.33
2023-01-28T03:00:18.728Z,52.04
2023-01-28T03:02:28.566Z,52.28
2023-01-28T03:04:36.137Z,52.14
2023-01-28T03:06:44.487Z,52.28
2023-01-28T03:09:01.249Z,52.14
2023-01-28T03:11:12.355Z,52.11
2023-01-28T03:13:24.042Z,51.80
2023-01-28T03:15:43.486Z,51.63
2023-01-28T03:18:04.924Z,51.51
2023-01-28T03:20:17.446Z,51.85
2023-01-28T03:22:30.021Z,51.07
2023-01-28T03:24:48.606Z,50.66
2023-01-28T03:27:12.276Z,50.85
2023-01-28T03:29:25.667Z,50.69
2023-01-28T03:31:37.536Z,51.08
2023-01-28T03:33:50.898Z,51.15
2023-01-28T03:36:02.469Z,51.00
2023-01-28T03:38:18.291Z,51.51
2023-01-28T03:40:20.326Z,50.81
2023-01-28T03:42:22.172Z,51.59
2023-01-28T03:44:35.327Z,51.54
2023-01-28T03:46:39.735Z,51.66
2023-01-28T03:48:42.036Z,51.72
2023-01-28T03:50:43.985Z,51.26
2023-01-28T03:52:45.917Z,51.95
2023-01-28T03:54:48.750Z,51.61
2023-01-28T03:56:50.589Z,51.88
2023-01-28T03:58:54.249Z,51.73
2023-01-28T04:00:56.287Z,51.83
2023-01-28T04:02:58.292Z,51.81
2023-01-28T04:05:00.810Z,52.00
2023-01-28T04:07:02.692Z,51.81
2023-01-28T04:09:06.095Z,51.76
2023-01-28T04:11:17.259Z,51.58
2023-01-28T04:13:19.347Z,51.80
2023-01-28T04:15:21.186Z,51.35
2023-01-28T04:17:23.323Z,51.60
2023-01-28T04:19:25.971Z,51.53
2023-01-28T04:21:27.787Z,51.34
2023-01-28T04:23:30.723Z,51.34
2023-01-28T04:25:32.816Z,51.58
2023-01-28T04:27:34.687Z,52.08
2023-01-28T04:29:36.477Z,51.88
2023-01-28T04:31:38.387Z,52.41
2023-01-28T04:33:40.214Z,52.23
2023-01-28T04:35:42.206Z,52.74
2023-01-28T04:37:44.172Z,52.37
2023-01-28T04:39:46.132Z,52.44
2023-01-28T04:41:47.921Z,52.72
2023-01-28T04:43:50.063Z,52.88
2023-01-28T04:45:51.906Z,52.47
2023-01-28T04:47:53.781Z,52.79
2023-01-28T04:49:55.730Z,53.09
2023-01-28T04:51:57.602Z,52.84
2023-01-28T04:53:59.391Z,52.76
2023-01-28T04:56:01.301Z,52.96
2023-01-28T04:58:03.743Z,53.11
2023-01-28T05:00:06.669Z,52.67
2023-01-28T05:02:08.594Z,52.89
2023-01-28T05:04:10.441Z,52.93
2023-01-28T05:06:12.431Z,52.85
2023-01-28T05:08:14.511Z,52.69
2023-01-28T05:10:16.791Z,52.45
2023-01-28T05:12:20.923Z,52.30
2023-01-28T05:14:22.737Z,52.01
2023-01-28T05:16:24.573Z,51.78
2023-01-28T05:18:26.377Z,51.89
2023-01-28T05:20:28.191Z,51.93
2023-01-28T05:22:30.046Z,51.81
2023-01-28T05:24:31.958Z,52.06
2023-01-28T05:26:34.105Z,51.72
2023-01-28T05:28:36.191Z,51.62
2023-01-28T05:30:39.329Z,51.33
2023-01-28T05:32:41.163Z,51.57
2023-01-28T05:34:43.079Z,51.11
2023-01-28T05:36:44.886Z,50.51
2023-01-28T05:38:46.725Z,50.96
2023-01-28T05:40:49.376Z,50.68
2023-01-28T05:42:51.177Z,50.00
2023-01-28T05:44:53.061Z,49.56
2023-01-28T05:46:54.922Z,49.30
2023-01-28T05:48:56.750Z,49.36
2023-01-28T05:50:58.811Z,49.60
2023-01-28T05:53:00.711Z,49.43
2023-01-28T05:55:03.126Z,48.90
2023-01-28T05:57:05.025Z,48.33
2023-01-28T05:59:06.956Z,48.60
2023-01-28T06:01:08.771Z,48.71
2023-01-28T06:03:10.777Z,48.99
2023-01-28T06:05:12.653Z,49.15
2023-01-28T06:07:15.976Z,48.49
2023-01-28T06:09:17.742Z,48.16
2023-01-28T06:11:19.969Z,48.23
2023-01-28T06:13:21.857Z,48.38
2023-01-28T06:15:23.863Z,47.76
2023-01-28T06:17:25.700Z,48.38
2023-01-28T06:19:27.522Z,47.64
2023-01-28T06:21:30.293Z,47.86
2023-01-28T06:23:32.226Z,47.51
2023-01-28T06:25:34.022Z,47.73
2023-01-28T06:27:35.915Z,47.96
2023-01-28T06:29:37.784Z,48.10
2023-01-28T06:31:39.571Z,47.74
2023-01-28T06:33:41.410Z,47.95
2023-01-28T06:35:43.302Z,47.29
2023-01-28T06:37:45.679Z,47.23
2023-01-28T06:39:47.573Z,47.25
2023-01-28T06:41:50.688Z,47.52
2023-01-28T06:43:52.785Z,47.92
2023-01-28T06:45:55.975Z,47.75
2023-01-28T06:47:57.870Z,47.42
2023-01-28T06:49:59.708Z,47.57
2023-01-28T06:52:01.554Z,48.14
2023-01-28T06:54:03.455Z,47.83
2023-01-28T06:56:06.046Z,47.82
2023-01-28T06:58:08.103Z,47.83
2023-01-28T07:00:14.197Z,47.72
2023-01-28T07:02:16.202Z,47.68
2023-01-28T07:04:18.067Z,47.50
2023-01-28T07:06:19.895Z,47.94
2023-01-28T07:08:21.753Z,48.30
2023-01-28T07:10:23.587Z,48.30
2023-01-28T07:12:25.378Z,48.24
2023-01-28T07:14:27.151Z,48.17
2023-01-28T07:16:29.039Z,48.13
2023-01-28T07:18:31.403Z,48.53
2023-01-28T07:20:33.231Z,48.63
2023-01-28T07:22:35.200Z,48.79
2023-01-28T07:24:36.998Z,48.86
2023-01-28T07:26:38.794Z,48.64
2023-01-28T07:28:40.578Z,49.30
2023-01-28T07:30:42.486Z,48.79
2023-01-28T07:32:45.297Z,49.24
2023-01-28T07:34:47.089Z,48.73
2023-01-28T07:36:48.887Z,48.95
2023-01-28T07:38:50.679Z,48.29
2023-01-28T07:40:52.522Z,48.80
2023-01-28T07:42:56.369Z,48.68
2023-01-28T07:44:58.297Z,48.49
2023-01-28T07:47:00.233Z,48.39
2023-01-28T07:49:02.662Z,48.80
2023-01-28T07:51:04.759Z,48.89
2023-01-28T07:53:08.916Z,49.51
2023-01-28T07:55:15.650Z,49.51
2023-01-28T07:57:23.593Z,48.58
2023-01-28T07:59:25.726Z,48.79
2023-01-28T08:01:27.905Z,49.06
2023-01-28T08:03:29.990Z,49.18
2023-01-28T08:05:42.282Z,49.06
2023-01-28T08:07:44.952Z,48.84
2023-01-28T08:09:47.036Z,49.43
2023-01-28T08:11:49.033Z,48.85
2023-01-28T08:13:51.155Z,48.37
2023-01-28T08:15:56.870Z,48.63
2023-01-28T08:18:00.177Z,48.53
2023-01-28T08:20:02.407Z,49.16
2023-01-28T08:22:04.629Z,48.58
2023-01-28T08:24:07.314Z,49.03
2023-01-28T08:26:09.852Z,48.98
2023-01-28T08:28:13.771Z,49.15
2023-01-28T08:30:16.284Z,49.21
2023-01-28T08:35:36.047Z,49.54
2023-01-28T08:37:38.587Z,49.37
2023-01-28T08:39:40.727Z,49.64
2023-01-28T08:41:42.812Z,49.35
2023-01-28T08:43:45.017Z,48.86
2023-01-28T08:45:47.269Z,48.76
2023-01-28T08:47:54.880Z,48.74
2023-01-28T08:49:57.006Z,49.02
2023-01-28T08:51:59.206Z,49.35
2023-01-28T08:54:02.536Z,49.55
2023-01-28T08:56:05.318Z,49.50
2023-01-28T08:58:11.551Z,48.79
2023-01-28T09:00:15.022Z,48.82
2023-01-28T09:02:30.836Z,49.52
2023-01-28T09:04:33.831Z,49.73
2023-01-28T09:06:36.002Z,49.53
2023-01-28T09:08:38.324Z,48.63
2023-01-28T09:10:42.382Z,48.26
2023-01-28T09:12:44.834Z,48.90
2023-01-28T09:14:47.023Z,48.37
2023-01-28T09:16:49.221Z,48.72
2023-01-28T09:18:52.137Z,48.96
2023-01-28T09:20:54.230Z,49.14
2023-01-28T09:22:56.423Z,48.61
2023-01-28T09:24:58.703Z,48.47
2023-01-28T09:27:01.030Z,48.53
2023-01-28T09:29:03.152Z,48.80
2023-01-28T09:31:08.509Z,48.75
2023-01-28T09:33:10.902Z,48.90
2023-01-28T09:35:13.273Z,48.62
2023-01-28T09:37:15.882Z,48.81
2023-01-28T09:39:18.421Z,49.01
2023-01-28T09:41:27.535Z,48.63
2023-01-28T09:43:33.187Z,48.46
2023-01-28T09:45:47.377Z,48.36
2023-01-28T09:47:54.415Z,47.86
2023-01-28T09:50:00.769Z,47.75
2023-01-28T09:52:03.778Z,47.63
2023-01-28T09:54:20.386Z,47.72
2023-01-28T09:56:31.120Z,48.16
2023-01-28T09:58:34.710Z,47.95
2023-01-28T10:00:47.603Z,47.49
2023-01-28T10:02:57.787Z,47.58
2023-01-28T10:05:16.956Z,47.57
2023-01-28T10:07:30.073Z,48.21
2023-01-28T10:09:46.197Z,47.92
2023-01-28T10:11:50.153Z,47.85
2023-01-28T10:14:10.145Z,47.19
2023-01-28T10:16:28.402Z,47.15
2023-01-28T10:18:41.300Z,47.60
2023-01-28T10:20:50.015Z,47.75
2023-01-28T10:23:00.968Z,47.52
2023-01-28T10:25:07.003Z,47.88
2023-01-28T10:27:17.057Z,47.63
2023-01-28T10:29:24.456Z,47.47
2023-01-28T10:31:34.867Z,47.77
2023-01-28T10:33:40.376Z,47.08
2023-01-28T10:35:44.944Z,47.30
2023-01-28T10:37:48.955Z,47.98
2023-01-28T10:39:55.123Z,47.20
2023-01-28T10:41:58.822Z,47.55
2023-01-28T10:44:01.449Z,47.10
2023-01-28T10:46:22.664Z,46.91
2023-01-28T10:48:29.868Z,47.45
2023-01-28T10:50:32.605Z,46.38
2023-01-28T10:52:35.041Z,46.91
2023-01-28T10:54:37.272Z,46.84
2023-01-28T10:56:39.339Z,46.76
2023-01-28T10:59:02.694Z,47.21
2023-01-28T11:01:08.144Z,47.49
2023-01-28T11:03:18.949Z,47.52
2023-01-28T11:05:25.830Z,47.46
2023-01-28T11:07:27.917Z,47.36
2023-01-28T11:09:33.862Z,47.93
2023-01-28T11:11:36.113Z,47.24
2023-01-28T11:13:50.418Z,46.74
2023-01-28T11:15:57.272Z,47.09
2023-01-28T11:18:03.005Z,46.61
2023-01-28T11:20:14.238Z,46.61
2023-01-28T11:22:26.292Z,46.67
2023-01-28T11:24:32.444Z,47.01
2023-01-28T11:26:38.821Z,46.89
2023-01-28T11:28:43.163Z,47.16
2023-01-28T11:30:53.210Z,47.01
2023-01-28T11:33:05.397Z,47.12
2023-01-28T11:35:08.886Z,46.79
2023-01-28T11:37:16.395Z,46.65
2023-01-28T11:39:26.197Z,46.89
2023-01-28T11:41:32.684Z,46.96
2023-01-28T11:43:34.593Z,46.70
2023-01-28T11:45:48.855Z,46.33
2023-01-28T11:48:03.418Z,46.84
2023-01-28T11:50:05.821Z,46.27
2023-01-28T11:52:21.202Z,46.46
2023-01-28T11:54:33.430Z,47.09
2023-01-28T11:56:45.673Z,46.64
2023-01-28T11:58:51.132Z,45.91
2023-01-28T12:01:04.729Z,47.28
2023-01-28T12:03:10.466Z,46.98
2023-01-28T12:05:19.894Z,47.15
2023-01-28T12:07:41.297Z,46.09
2023-01-28T12:09:57.103Z,46.04
2023-01-28T12:12:09.100Z,45.44
2023-01-28T12:14:18.175Z,45.57
2023-01-28T12:16:28.135Z,46.26
2023-01-28T12:18:42.369Z,45.78
2023-01-28T12:20:55.333Z,46.12
2023-01-28T12:23:05.689Z,45.82
2023-01-28T12:25:14.968Z,46.46
2023-01-28T12:27:27.280Z,46.26
2023-01-28T12:29:39.708Z,45.86
2023-01-28T12:32:01.343Z,46.17
2023-01-28T12:34:31.469Z,46.76
2023-01-28T12:36:49.222Z,45.97
2023-01-28T12:39:00.793Z,46.08
2023-01-28T12:41:12.220Z,46.02
2023-01-28T12:43:26.688Z,46.14
2023-01-28T12:45:32.919Z,46.11
2023-01-28T12:47:39.224Z,45.45
2023-01-28T12:49:45.796Z,46.13
2023-01-28T12:52:06.069Z,45.49
2023-01-28T12:54:19.504Z,45.98
2023-01-28T12:56:30.791Z,45.83
2023-01-28T12:58:44.769Z,45.95
2023-01-28T13:00:51.549Z,45.31
2023-01-28T13:03:10.328Z,45.52
2023-01-28T13:05:18.052Z,45.46
2023-01-28T13:07:35.009Z,44.70
2023-01-28T13:09:39.263Z,45.18
2023-01-28T13:11:41.673Z,45.28
2023-01-28T13:13:46.526Z,45.41
2023-01-28T13:15:48.598Z,45.36
2023-01-28T13:18:01.434Z,45.66
2023-01-28T13:20:15.255Z,45.26
2023-01-28T13:22:30.120Z,44.44
2023-01-28T13:24:35.264Z,45.15
2023-01-28T13:26:51.511Z,44.96
2023-01-28T13:28:55.867Z,45.76
2023-01-28T13:31:14.651Z,46.12
2023-01-28T13:33:27.751Z,45.68
2023-01-28T13:35:32.541Z,45.23
2023-01-28T13:37:43.991Z,45.91
2023-01-28T13:39:50.474Z,45.58
2023-01-28T13:41:55.272Z,45.88
2023-01-28T13:43:58.918Z,46.22
2023-01-28T13:46:04.597Z,46.53
2023-01-28T13:48:33.297Z,45.86
2023-01-28T13:50:42.195Z,45.00
2023-01-28T13:52:57.099Z,46.04
2023-01-28T13:55:11.707Z,45.37
2023-01-28T13:57:36.588Z,45.71
2023-01-28T13:59:48.389Z,46.09
2023-01-28T14:02:07.469Z,46.88
2023-01-28T14:04:32.343Z,46.75
2023-01-28T14:06:50.290Z,46.68
2023-01-28T14:09:20.237Z,46.51
2023-01-28T14:11:32.590Z,46.59
2023-01-28T14:13:44.034Z,46.11
2023-01-28T14:15:53.774Z,46.56
2023-01-28T14:17:58.180Z,46.75
2023-01-28T14:20:01.261Z,47.13
2023-01-28T14:22:17.605Z,47.00
2023-01-28T14:24:20.410Z,47.09
2023-01-28T14:26:28.116Z,47.48
2023-01-28T14:28:42.285Z,47.62
2023-01-28T14:30:53.849Z,47.08
2023-01-28T14:32:56.052Z,47.49
2023-01-28T14:35:02.208Z,47.33
2023-01-28T14:37:08.978Z,47.98
2023-01-28T14:39:21.673Z,48.12
2023-01-28T14:41:28.010Z,47.99
2023-01-28T14:43:31.417Z,47.18
2023-01-28T14:45:44.224Z,47.56
2023-01-28T14:47:57.209Z,47.36
2023-01-28T14:50:00.663Z,47.55
2023-01-28T14:52:10.934Z,47.59
2023-01-28T14:54:25.253Z,47.70
2023-01-28T14:56:36.760Z,47.99
2023-01-28T14:58:45.685Z,47.70
2023-01-28T15:00:58.748Z,48.74
2023-01-28T15:03:01.851Z,48.52
2023-01-28T15:05:18.798Z,48.66
2023-01-28T15:07:23.526Z,48.85
2023-01-28T15:09:25.833Z,49.16
2023-01-28T15:11:27.659Z,48.19
2023-01-28T15:13:32.746Z,48.29
2023-01-28T15:15:38.251Z,48.24
2023-01-28T15:17:40.843Z,48.38
2023-01-28T15:19:42.714Z,47.94
2023-01-28T15:21:45.724Z,47.75
2023-01-28T15:23:52.038Z,48.40
2023-01-28T15:25:55.521Z,48.73
2023-01-28T15:28:00.984Z,48.33
2023-01-28T15:30:02.903Z,48.53
2023-01-28T15:32:05.495Z,48.67
2023-01-28T15:34:12.872Z,48.92
2023-01-28T15:36:15.438Z,48.59
2023-01-28T15:38:18.091Z,48.72
2023-01-28T15:40:22.873Z,48.49
2023-01-28T15:42:29.511Z,48.61
2023-01-28T15:44:34.060Z,48.48
2023-01-28T15:46:40.267Z,49.09
2023-01-28T15:48:46.322Z,49.23
2023-01-28T15:50:48.266Z,49.78
2023-01-28T15:52:52.693Z,49.84
2023-01-28T15:54:54.528Z,49.97
2023-01-28T15:56:56.671Z,49.94
2023-01-28T15:59:10.202Z,50.30
2023-01-28T16:01:15.564Z,49.53
2023-01-28T16:03:21.157Z,49.93
2023-01-28T16:05:34.810Z,50.34
2023-01-28T16:07:46.317Z,49.81
2023-01-28T16:09:52.917Z,50.33
2023-01-28T16:12:02.947Z,49.93
2023-01-28T16:14:05.122Z,50.57
2023-01-28T16:16:08.761Z,51.41
2023-01-28T16:18:30.026Z,50.97
2023-01-28T16:20:32.652Z,51.54
2023-01-28T16:22:39.695Z,51.80
2023-01-28T16:24:49.348Z,51.68
2023-01-28T16:27:01.975Z,51.32
2023-01-28T16:29:15.701Z,51.69
2023-01-28T16:31:17.929Z,52.20
2023-01-28T16:33:21.012Z,52.49
2023-01-28T16:35:31.348Z,51.94
2023-01-28T16:37:41.726Z,52.33
2023-01-28T16:39:44.568Z,52.81
2023-01-28T16:41:48.967Z,52.65
2023-01-28T16:43:51.068Z,52.76
2023-01-28T16:45:53.295Z,52.25
2023-01-28T16:47:55.453Z,52.89
2023-01-28T16:49:57.757Z,52.31
2023-01-28T16:52:02.438Z,52.88
2023-01-28T16:54:05.490Z,52.85
2023-01-28T16:56:19.503Z,52.62
2023-01-28T16:58:35.491Z,52.47
2023-01-28T17:00:37.511Z,52.93
2023-01-28T17:02:40.063Z,52.23
2023-01-28T17:04:42.404Z,53.09
2023-01-28T17:06:46.506Z,52.81
2023-01-28T17:08:48.689Z,53.19
2023-01-28T17:10:54.047Z,53.08
2023-01-28T17:12:56.082Z,53.01
2023-01-28T17:14:58.163Z,52.77
2023-01-28T17:17:00.360Z,53.14
2023-01-28T17:19:02.538Z,53.28
2023-01-28T17:21:08.207Z,52.91
2023-01-28T17:23:23.076Z,52.72
2023-01-28T17:25:26.331Z,52.95
2023-01-28T17:27:28.150Z,52.10
2023-01-28T17:29:30.013Z,52.03
2023-01-28T17:31:32.222Z,52.13
2023-01-28T17:33:34.981Z,52.04
2023-01-28T17:35:37.096Z,52.14
2023-01-28T17:37:38.886Z,52.03
2023-01-28T17:39:40.910Z,52.55
2023-01-28T17:41:42.881Z,51.80
2023-01-28T17:43:49.846Z,51.75
2023-01-28T17:45:51.842Z,52.18
2023-01-28T17:47:54.293Z,52.17
2023-01-28T17:49:56.910Z,52.22
2023-01-28T17:51:59.553Z,51.96
2023-01-28T17:54:01.972Z,52.28
2023-01-28T17:56:04.146Z,52.05
2023-01-28T17:58:06.366Z,52.63
2023-01-28T18:00:11.272Z,52.86
2023-01-28T18:02:13.621Z,52.88
2023-01-28T18:04:15.503Z,53.13
2023-01-28T18:06:17.963Z,53.19
2023-01-28T18:08:20.134Z,52.86
2023-01-28T18:10:22.268Z,52.99
2023-01-28T18:12:24.033Z,53.22
2023-01-28T18:14:25.778Z,53.39
2023-01-28T18:16:27.770Z,53.24
2023-01-28T18:18:29.851Z,53.54
2023-01-28T18:20:31.679Z,53.31
2023-01-28T18:22:33.841Z,54.09
2023-01-28T18:24:35.764Z,54.45
2023-01-28T18:26:37.602Z,53.94
2023-01-28T18:28:39.497Z,53.78
2023-01-28T18:30:41.337Z,54.05
2023-01-28T18:32:43.225Z,53.92
2023-01-28T18:34:44.964Z,54.38
2023-01-28T18:36:46.899Z,54.68
2023-01-28T18:38:49.026Z,54.48
2023-01-28T18:40:55.746Z,54.56
2023-01-28T18:42:57.508Z,54.55
2023-01-28T18:44:59.699Z,54.42
2023-01-28T18:47:01.582Z,54.71
2023-01-28T18:49:03.896Z,54.39
2023-01-28T18:51:12.333Z,54.85
2023-01-28T18:53:20.083Z,54.61
2023-01-28T18:55:22.029Z,54.69
2023-01-28T18:57:23.843Z,54.36
2023-01-28T18:59:26.184Z,54.68
2023-01-28T19:01:29.170Z,54.43
2023-01-28T19:03:31.009Z,54.37
2023-01-28T19:05:37.662Z,54.97
2023-01-28T19:07:39.519Z,54.48
2023-01-28T19:09:41.359Z,54.24
2023-01-28T19:11:43.441Z,54.14
2023-01-28T19:13:45.334Z,53.59
2023-01-28T19:15:47.153Z,54.01
2023-01-28T19:17:48.999Z,54.68
2023-01-28T19:19:51.407Z,54.96
2023-01-28T19:21:53.605Z,54.01
2023-01-28T19:23:57.542Z,54.58
2023-01-28T19:26:03.576Z,54.79
2023-01-28T19:28:06.125Z,54.54
2023-01-28T19:30:09.044Z,54.54
2023-01-28T19:32:10.894Z,54.16
2023-01-28T19:34:13.213Z,54.79
2023-01-28T19:36:15.840Z,54.50
2023-01-28T19:38:17.744Z,54.66
2023-01-28T19:40:19.585Z,54.78
2023-01-28T19:42:21.466Z,54.97
2023-01-28T19:44:23.363Z,54.74
2023-01-28T19:46:25.667Z,54.54
2023-01-28T19:48:28.157Z,54.63
2023-01-28T19:50:30.903Z,54.57
2023-01-28T19:52:32.679Z,54.50
2023-01-28T19:54:34.759Z,55.01
2023-01-28T19:56:37.745Z,54.61
2023-01-28T19:58:42.267Z,54.36
2023-01-28T20:00:44.306Z,54.52
2023-01-28T20:02:50.740Z,54.10
2023-01-28T20:05:00.580Z,53.91
2023-01-28T20:07:02.709Z,55.11
2023-01-28T20:09:09.200Z,55.08
2023-01-28T20:11:13.899Z,54.69
2023-01-28T20:13:15.773Z,54.38
2023-01-28T20:15:18.502Z,54.58
2023-01-28T20:17:21.895Z,54.71
2023-01-28T20:19:23.774Z,54.19
2023-01-28T20:21:26.314Z,54.29
2023-01-28T20:23:28.706Z,54.43
2023-01-28T20:25:30.594Z,54.40
2023-01-28T20:27:32.990Z,54.46
2023-01-28T20:29:34.795Z,54.35
2023-01-28T20:31:38.541Z,54.55
2023-01-28T20:33:40.804Z,54.35
2023-01-28T20:35:43.726Z,54.35
2023-01-28T20:37:45.439Z,54.70
2023-01-28T20:39:47.254Z,54.24
2023-01-28T20:41:50.051Z,54.24
2023-01-28T20:43:52.948Z,54.25
2023-01-28T20:46:01.285Z,54.58
2023-01-28T20:48:03.178Z,54.40
2023-01-28T20:50:05.763Z,54.90
2023-01-28T20:52:07.501Z,54.80
2023-01-28T20:54:10.999Z,54.16
2023-01-28T20:56:16.928Z,54.57
2023-01-28T20:58:18.698Z,54.56
2023-01-28T21:00:21.838Z,54.43
2023-01-28T21:02:23.630Z,54.73
2023-01-28T21:04:25.400Z,54.49
2023-01-28T21:06:28.255Z,53.77
2023-01-28T21:08:30.001Z,53.88
2023-01-28T21:10:31.849Z,54.17
2023-01-28T21:12:33.705Z,54.39
2023-01-28T21:14:35.481Z,54.15
2023-01-28T21:16:42.307Z,54.30
2023-01-28T21:18:44.684Z,54.44
2023-01-28T21:20:46.559Z,54.65
2023-01-28T21:22:52.348Z,54.43
2023-01-28T21:24:54.177Z,54.69
2023-01-28T21:26:56.011Z,53.95
2023-01-28T21:28:57.819Z,54.58
2023-01-28T21:31:11.254Z,54.24
2023-01-28T21:33:15.407Z,54.66
2023-01-28T21:35:17.298Z,55.01
2023-01-28T21:37:22.458Z,54.85
2023-01-28T21:39:24.411Z,55.28
2023-01-28T21:41:27.324Z,54.60
2023-01-28T21:43:29.449Z,55.24
2023-01-28T21:45:31.216Z,55.48
2023-01-28T21:47:33.034Z,54.93
2023-01-28T21:49:35.081Z,55.06
2023-01-28T21:51:39.475Z,55.07
2023-01-28T21:53:42.337Z,55.30
2023-01-28T21:55:47.691Z,55.55
2023-01-28T21:58:10.689Z,55.38
2023-01-28T22:00:13.211Z,55.71
2023-01-28T22:02:15.608Z,55.47
2023-01-28T22:04:17.397Z,55.58
2023-01-28T22:06:19.153Z,55.47
2023-01-28T22:08:20.914Z,55.33
2023-01-28T22:10:22.734Z,55.73
2023-01-28T22:12:24.549Z,55.74
2023-01-28T22:14:27.110Z,56.18
2023-01-28T22:16:28.842Z,55.75
2023-01-28T22:18:31.248Z,55.86
2023-01-28T22:20:32.939Z,56.30
2023-01-28T22:22:34.794Z,56.19
2023-01-28T22:24:36.564Z,55.88
2023-01-28T22:26:39.415Z,55.86
2023-01-28T22:28:41.210Z,56.42
2023-01-28T22:30:43.317Z,56.10
2023-01-28T22:32:45.123Z,56.06
2023-01-28T22:34:47.076Z,56.68
2023-01-28T22:36:51.299Z,55.69
2023-01-28T22:38:53.129Z,56.14
2023-01-28T22:40:54.914Z,56.26
2023-01-28T22:42:56.692Z,56.53
2023-01-28T22:44:58.463Z,56.34
2023-01-28T22:47:00.225Z,56.83
2023-01-28T22:49:03.621Z,56.57
2023-01-28T22:51:08.603Z,56.67
2023-01-28T22:53:10.379Z,57.11
2023-01-28T22:55:12.138Z,57.56
2023-01-28T22:57:13.907Z,57.52
2023-01-28T22:59:15.690Z,57.65
2023-01-28T23:01:18.034Z,57.67
2023-01-28T23:03:20.091Z,57.15
2023-01-28T23:05:21.858Z,58.28
2023-01-28T23:07:23.584Z,58.62
2023-01-28T23:09:25.367Z,58.22
2023-01-28T23:11:28.210Z,58.56
2023-01-28T23:13:40.089Z,58.36
2023-01-28T23:15:51.117Z,58.75
2023-01-28T23:18:02.223Z,58.81
2023-01-28T23:20:15.074Z,59.26
2023-01-28T23:22:40.127Z,59.49
2023-01-28T23:24:41.907Z,59.54
2023-01-28T23:26:43.748Z,59.70
2023-01-28T23:28:45.548Z,59.70
2023-01-28T23:30:47.437Z,59.83
2023-01-28T23:32:50.354Z,59.84
2023-01-28T23:34:52.210Z,59.78
2023-01-28T23:36:55.364Z,59.85
2023-01-28T23:38:57.085Z,60.32
2023-01-28T23:40:58.822Z,59.94
2023-01-28T23:43:00.646Z,60.47
2023-01-28T23:45:07.021Z,60.48
2023-01-28T23:47:08.998Z,60.51
2023-01-28T23:49:10.792Z,60.21
2023-01-28T23:51:12.699Z,60.35
2023-01-28T23:53:14.688Z,60.12
2023-01-28T23:55:16.619Z,60.55
2023-01-28T23:57:18.608Z,60.30
2023-01-28T23:59:20.489Z,60.21
